sensor_id;sensor_type;location;lat;lon;timestamp;P1;durP1;ratioP1;P2;durP2;ratioP2
7045;SDS011;3564;53.326;10.356;2022-08-21T00:00:53;3.60;;;2.00;;
7045;SDS011;3564;53.326;10.356;2022-08-21T00:03:18;3.00;;;1.77;;
7045;SDS011;3564;53.326;10.356;2022-08-21T00:05:46;4.77;;;2.10;;
7045;SDS011;3564;53.326;10.356;2022-08-21T00:08:14;2.87;;;1.70;;
7045;SDS011;3564;53.326;10.356;2022-08-21T00:10:41;4.07;;;1.50;;
7045;SDS011;3564;53.326;10.356;2022-08-21T00:13:08;2.90;;;1.70;;
7045;SDS011;3564;53.326;10.356;2022-08-21T00:15:35;2.30;;;1.83;;
7045;SDS011;3564;53.326;10.356;2022-08-21T00:18:02;4.20;;;2.23;;
7045;SDS011;3564;53.326;10.356;2022-08-21T00:20:29;3.90;;;2.20;;
7045;SDS011;3564;53.326;10.356;2022-08-21T00:22:55;3.90;;;1.80;;
7045;SDS011;3564;53.326;10.356;2022-08-21T00:25:21;3.17;;;1.80;;
7045;SDS011;3564;53.326;10.356;2022-08-21T00:27:46;5.57;;;2.30;;
7045;SDS011;3564;53.326;10.356;2022-08-21T00:30:13;3.57;;;2.07;;
7045;SDS011;3564;53.326;10.356;2022-08-21T00:32:40;3.93;;;1.90;;
7045;SDS011;3564;53.326;10.356;2022-08-21T00:35:07;5.73;;;2.10;;
7045;SDS011;3564;53.326;10.356;2022-08-21T00:37:36;2.50;;;1.97;;
7045;SDS011;3564;53.326;10.356;2022-08-21T00:40:03;2.73;;;2.00;;
7045;SDS011;3564;53.326;10.356;2022-08-21T00:42:33;4.10;;;1.80;;
7045;SDS011;3564;53.326;10.356;2022-08-21T00:44:59;4.80;;;2.17;;
7045;SDS011;3564;53.326;10.356;2022-08-21T00:47:24;2.53;;;1.90;;
7045;SDS011;3564;53.326;10.356;2022-08-21T00:49:50;4.93;;;2.60;;
7045;SDS011;3564;53.326;10.356;2022-08-21T00:52:19;3.13;;;1.90;;
7045;SDS011;3564;53.326;10.356;2022-08-21T00:54:48;3.40;;;1.90;;
7045;SDS011;3564;53.326;10.356;2022-08-21T00:57:17;4.10;;;1.93;;
7045;SDS011;3564;53.326;10.356;2022-08-21T00:59:46;3.50;;;2.17;;
7045;SDS011;3564;53.326;10.356;2022-08-21T01:02:15;4.93;;;2.17;;
7045;SDS011;3564;53.326;10.356;2022-08-21T01:04:41;3.27;;;2.10;;
7045;SDS011;3564;53.326;10.356;2022-08-21T01:07:08;6.07;;;2.03;;
7045;SDS011;3564;53.326;10.356;2022-08-21T01:09:35;3.73;;;2.00;;
7045;SDS011;3564;53.326;10.356;2022-08-21T01:12:04;5.20;;;2.13;;
7045;SDS011;3564;53.326;10.356;2022-08-21T01:14:30;2.27;;;1.90;;
7045;SDS011;3564;53.326;10.356;2022-08-21T01:16:56;3.03;;;1.90;;
7045;SDS011;3564;53.326;10.356;2022-08-21T01:19:23;3.17;;;2.43;;
7045;SDS011;3564;53.326;10.356;2022-08-21T01:21:50;3.30;;;2.27;;
7045;SDS011;3564;53.326;10.356;2022-08-21T01:24:19;2.40;;;2.10;;
7045;SDS011;3564;53.326;10.356;2022-08-21T01:26:44;2.37;;;2.10;;
7045;SDS011;3564;53.326;10.356;2022-08-21T01:32:10;3.83;;;2.73;;
7045;SDS011;3564;53.326;10.356;2022-08-21T01:34:39;4.83;;;2.50;;
7045;SDS011;3564;53.326;10.356;2022-08-21T01:37:06;3.47;;;2.20;;
7045;SDS011;3564;53.326;10.356;2022-08-21T01:39:33;2.30;;;2.10;;
7045;SDS011;3564;53.326;10.356;2022-08-21T01:41:59;3.77;;;2.27;;
7045;SDS011;3564;53.326;10.356;2022-08-21T01:44:24;7.20;;;2.80;;
7045;SDS011;3564;53.326;10.356;2022-08-21T01:46:51;6.57;;;2.50;;
7045;SDS011;3564;53.326;10.356;2022-08-21T01:49:18;3.87;;;2.53;;
7045;SDS011;3564;53.326;10.356;2022-08-21T01:51:44;7.00;;;2.70;;
7045;SDS011;3564;53.326;10.356;2022-08-21T01:54:10;3.43;;;2.40;;
7045;SDS011;3564;53.326;10.356;2022-08-21T01:56:37;5.93;;;2.63;;
7045;SDS011;3564;53.326;10.356;2022-08-21T01:59:05;5.80;;;2.77;;
7045;SDS011;3564;53.326;10.356;2022-08-21T02:01:31;3.90;;;2.60;;
7045;SDS011;3564;53.326;10.356;2022-08-21T02:03:57;3.37;;;2.23;;
7045;SDS011;3564;53.326;10.356;2022-08-21T02:06:24;3.67;;;2.30;;
7045;SDS011;3564;53.326;10.356;2022-08-21T02:08:51;3.97;;;2.20;;
7045;SDS011;3564;53.326;10.356;2022-08-21T02:11:17;4.37;;;2.37;;
7045;SDS011;3564;53.326;10.356;2022-08-21T02:13:43;4.27;;;2.30;;
7045;SDS011;3564;53.326;10.356;2022-08-21T02:16:09;3.00;;;2.27;;
7045;SDS011;3564;53.326;10.356;2022-08-21T02:18:36;3.17;;;2.07;;
7045;SDS011;3564;53.326;10.356;2022-08-21T02:21:01;3.43;;;2.17;;
7045;SDS011;3564;53.326;10.356;2022-08-21T02:23:28;6.43;;;2.70;;
7045;SDS011;3564;53.326;10.356;2022-08-21T02:25:55;3.53;;;2.30;;
7045;SDS011;3564;53.326;10.356;2022-08-21T02:28:22;2.93;;;2.10;;
7045;SDS011;3564;53.326;10.356;2022-08-21T02:30:48;5.93;;;2.37;;
7045;SDS011;3564;53.326;10.356;2022-08-21T02:33:14;4.70;;;2.40;;
7045;SDS011;3564;53.326;10.356;2022-08-21T02:35:40;4.77;;;2.40;;
7045;SDS011;3564;53.326;10.356;2022-08-21T02:38:08;4.03;;;2.33;;
7045;SDS011;3564;53.326;10.356;2022-08-21T02:40:36;5.03;;;2.23;;
7045;SDS011;3564;53.326;10.356;2022-08-21T02:43:03;3.20;;;1.90;;
7045;SDS011;3564;53.326;10.356;2022-08-21T02:45:30;4.93;;;2.67;;
7045;SDS011;3564;53.326;10.356;2022-08-21T02:47:58;4.33;;;2.07;;
7045;SDS011;3564;53.326;10.356;2022-08-21T02:50:30;4.00;;;2.40;;
7045;SDS011;3564;53.326;10.356;2022-08-21T02:52:58;6.23;;;2.03;;
7045;SDS011;3564;53.326;10.356;2022-08-21T02:55:26;2.17;;;1.87;;
7045;SDS011;3564;53.326;10.356;2022-08-21T02:57:56;4.77;;;2.10;;
7045;SDS011;3564;53.326;10.356;2022-08-21T03:00:22;3.33;;;1.93;;
7045;SDS011;3564;53.326;10.356;2022-08-21T03:02:51;4.30;;;2.40;;
7045;SDS011;3564;53.326;10.356;2022-08-21T03:05:18;3.53;;;2.20;;
7045;SDS011;3564;53.326;10.356;2022-08-21T03:07:45;4.90;;;2.37;;
7045;SDS011;3564;53.326;10.356;2022-08-21T03:10:12;3.97;;;2.40;;
7045;SDS011;3564;53.326;10.356;2022-08-21T03:12:38;3.87;;;2.60;;
7045;SDS011;3564;53.326;10.356;2022-08-21T03:15:06;4.40;;;2.20;;
7045;SDS011;3564;53.326;10.356;2022-08-21T03:17:33;2.43;;;2.23;;
7045;SDS011;3564;53.326;10.356;2022-08-21T03:20:03;3.10;;;2.10;;
7045;SDS011;3564;53.326;10.356;2022-08-21T03:22:30;5.00;;;2.43;;
7045;SDS011;3564;53.326;10.356;2022-08-21T03:24:57;4.07;;;2.53;;
7045;SDS011;3564;53.326;10.356;2022-08-21T03:27:24;3.70;;;2.27;;
7045;SDS011;3564;53.326;10.356;2022-08-21T03:29:51;5.00;;;3.00;;
7045;SDS011;3564;53.326;10.356;2022-08-21T03:32:17;4.43;;;2.37;;
7045;SDS011;3564;53.326;10.356;2022-08-21T03:34:45;3.47;;;2.53;;
7045;SDS011;3564;53.326;10.356;2022-08-21T03:37:11;4.30;;;2.53;;
7045;SDS011;3564;53.326;10.356;2022-08-21T03:39:36;5.13;;;2.90;;
7045;SDS011;3564;53.326;10.356;2022-08-21T03:42:02;4.27;;;2.50;;
7045;SDS011;3564;53.326;10.356;2022-08-21T03:44:28;3.77;;;2.47;;
7045;SDS011;3564;53.326;10.356;2022-08-21T03:46:54;2.97;;;2.23;;
7045;SDS011;3564;53.326;10.356;2022-08-21T03:49:20;6.33;;;2.70;;
7045;SDS011;3564;53.326;10.356;2022-08-21T03:51:46;3.03;;;2.30;;
7045;SDS011;3564;53.326;10.356;2022-08-21T03:54:11;5.50;;;2.37;;
7045;SDS011;3564;53.326;10.356;2022-08-21T03:56:37;3.30;;;2.23;;
7045;SDS011;3564;53.326;10.356;2022-08-21T03:59:04;3.27;;;2.60;;
7045;SDS011;3564;53.326;10.356;2022-08-21T04:01:30;3.70;;;2.50;;
7045;SDS011;3564;53.326;10.356;2022-08-21T04:03:56;2.77;;;2.27;;
7045;SDS011;3564;53.326;10.356;2022-08-21T04:06:25;4.67;;;2.50;;
7045;SDS011;3564;53.326;10.356;2022-08-21T04:08:51;2.70;;;2.50;;
7045;SDS011;3564;53.326;10.356;2022-08-21T04:11:18;5.13;;;2.40;;
7045;SDS011;3564;53.326;10.356;2022-08-21T04:13:46;4.67;;;2.43;;
7045;SDS011;3564;53.326;10.356;2022-08-21T04:16:12;3.33;;;2.17;;
7045;SDS011;3564;53.326;10.356;2022-08-21T04:18:38;2.60;;;2.40;;
7045;SDS011;3564;53.326;10.356;2022-08-21T04:21:04;5.43;;;2.20;;
7045;SDS011;3564;53.326;10.356;2022-08-21T04:23:31;4.13;;;2.20;;
7045;SDS011;3564;53.326;10.356;2022-08-21T04:25:57;3.00;;;2.03;;
7045;SDS011;3564;53.326;10.356;2022-08-21T04:28:23;2.90;;;2.57;;
7045;SDS011;3564;53.326;10.356;2022-08-21T04:30:50;3.50;;;1.80;;
7045;SDS011;3564;53.326;10.356;2022-08-21T04:33:17;3.37;;;2.50;;
7045;SDS011;3564;53.326;10.356;2022-08-21T04:35:43;5.40;;;2.40;;
7045;SDS011;3564;53.326;10.356;2022-08-21T04:38:09;4.13;;;2.30;;
7045;SDS011;3564;53.326;10.356;2022-08-21T04:40:34;3.77;;;2.13;;
7045;SDS011;3564;53.326;10.356;2022-08-21T04:43:02;3.70;;;2.30;;
7045;SDS011;3564;53.326;10.356;2022-08-21T04:45:48;4.70;;;2.17;;
7045;SDS011;3564;53.326;10.356;2022-08-21T04:48:16;3.47;;;2.23;;
7045;SDS011;3564;53.326;10.356;2022-08-21T04:50:54;2.63;;;2.40;;
7045;SDS011;3564;53.326;10.356;2022-08-21T04:55:56;6.20;;;2.20;;
7045;SDS011;3564;53.326;10.356;2022-08-21T04:58:25;3.43;;;2.23;;
7045;SDS011;3564;53.326;10.356;2022-08-21T05:00:53;4.73;;;2.30;;
7045;SDS011;3564;53.326;10.356;2022-08-21T05:03:20;3.00;;;2.00;;
7045;SDS011;3564;53.326;10.356;2022-08-21T05:05:47;4.37;;;2.13;;
7045;SDS011;3564;53.326;10.356;2022-08-21T05:08:14;4.57;;;2.30;;
7045;SDS011;3564;53.326;10.356;2022-08-21T05:10:43;2.73;;;1.80;;
7045;SDS011;3564;53.326;10.356;2022-08-21T05:13:09;3.27;;;2.23;;
7045;SDS011;3564;53.326;10.356;2022-08-21T05:15:37;2.90;;;2.30;;
7045;SDS011;3564;53.326;10.356;2022-08-21T05:18:06;3.13;;;2.20;;
7045;SDS011;3564;53.326;10.356;2022-08-21T05:20:32;4.53;;;2.20;;
7045;SDS011;3564;53.326;10.356;2022-08-21T05:22:59;3.70;;;2.50;;
7045;SDS011;3564;53.326;10.356;2022-08-21T05:25:26;2.40;;;2.17;;
7045;SDS011;3564;53.326;10.356;2022-08-21T05:27:52;3.30;;;2.23;;
7045;SDS011;3564;53.326;10.356;2022-08-21T05:30:18;2.50;;;2.30;;
7045;SDS011;3564;53.326;10.356;2022-08-21T05:32:45;4.17;;;2.80;;
7045;SDS011;3564;53.326;10.356;2022-08-21T05:35:12;5.40;;;2.80;;
7045;SDS011;3564;53.326;10.356;2022-08-21T05:37:38;6.50;;;2.80;;
7045;SDS011;3564;53.326;10.356;2022-08-21T05:40:04;4.03;;;2.53;;
7045;SDS011;3564;53.326;10.356;2022-08-21T05:42:31;4.50;;;2.87;;
7045;SDS011;3564;53.326;10.356;2022-08-21T05:44:57;4.33;;;2.67;;
7045;SDS011;3564;53.326;10.356;2022-08-21T05:47:22;3.10;;;2.90;;
7045;SDS011;3564;53.326;10.356;2022-08-21T05:49:48;3.83;;;2.40;;
7045;SDS011;3564;53.326;10.356;2022-08-21T05:52:18;3.97;;;2.60;;
7045;SDS011;3564;53.326;10.356;2022-08-21T05:54:45;3.83;;;2.47;;
7045;SDS011;3564;53.326;10.356;2022-08-21T05:57:10;3.93;;;2.80;;
7045;SDS011;3564;53.326;10.356;2022-08-21T05:59:36;4.43;;;2.80;;
7045;SDS011;3564;53.326;10.356;2022-08-21T06:02:02;5.10;;;2.90;;
7045;SDS011;3564;53.326;10.356;2022-08-21T06:04:28;4.20;;;2.87;;
7045;SDS011;3564;53.326;10.356;2022-08-21T06:06:54;4.00;;;2.67;;
7045;SDS011;3564;53.326;10.356;2022-08-21T06:09:19;4.17;;;2.70;;
7045;SDS011;3564;53.326;10.356;2022-08-21T06:11:46;4.40;;;2.50;;
7045;SDS011;3564;53.326;10.356;2022-08-21T06:14:14;4.20;;;2.60;;
7045;SDS011;3564;53.326;10.356;2022-08-21T06:16:41;3.13;;;2.80;;
7045;SDS011;3564;53.326;10.356;2022-08-21T06:19:06;4.40;;;2.70;;
7045;SDS011;3564;53.326;10.356;2022-08-21T06:21:32;5.53;;;2.97;;
7045;SDS011;3564;53.326;10.356;2022-08-21T06:23:58;5.03;;;2.63;;
7045;SDS011;3564;53.326;10.356;2022-08-21T06:26:23;4.67;;;2.77;;
7045;SDS011;3564;53.326;10.356;2022-08-21T06:28:49;16.47;;;3.70;;
7045;SDS011;3564;53.326;10.356;2022-08-21T06:31:16;5.23;;;3.13;;
7045;SDS011;3564;53.326;10.356;2022-08-21T06:33:44;4.37;;;2.93;;
7045;SDS011;3564;53.326;10.356;2022-08-21T06:36:10;8.30;;;3.10;;
7045;SDS011;3564;53.326;10.356;2022-08-21T06:38:36;6.77;;;3.30;;
7045;SDS011;3564;53.326;10.356;2022-08-21T06:41:02;4.50;;;2.60;;
7045;SDS011;3564;53.326;10.356;2022-08-21T06:43:28;4.90;;;3.23;;
7045;SDS011;3564;53.326;10.356;2022-08-21T06:45:54;6.47;;;3.13;;
7045;SDS011;3564;53.326;10.356;2022-08-21T06:48:20;5.80;;;2.80;;
7045;SDS011;3564;53.326;10.356;2022-08-21T06:50:46;6.37;;;2.83;;
7045;SDS011;3564;53.326;10.356;2022-08-21T06:53:13;3.23;;;2.83;;
7045;SDS011;3564;53.326;10.356;2022-08-21T06:55:41;5.13;;;2.90;;
7045;SDS011;3564;53.326;10.356;2022-08-21T06:58:07;3.80;;;2.60;;
7045;SDS011;3564;53.326;10.356;2022-08-21T07:00:34;4.90;;;2.97;;
7045;SDS011;3564;53.326;10.356;2022-08-21T07:03:04;6.10;;;2.90;;
7045;SDS011;3564;53.326;10.356;2022-08-21T07:05:29;5.80;;;3.03;;
7045;SDS011;3564;53.326;10.356;2022-08-21T07:07:55;3.07;;;2.23;;
7045;SDS011;3564;53.326;10.356;2022-08-21T07:10:22;3.93;;;2.20;;
7045;SDS011;3564;53.326;10.356;2022-08-21T07:12:50;4.37;;;2.60;;
7045;SDS011;3564;53.326;10.356;2022-08-21T07:15:17;3.63;;;2.50;;
7045;SDS011;3564;53.326;10.356;2022-08-21T07:17:43;3.37;;;2.47;;
7045;SDS011;3564;53.326;10.356;2022-08-21T07:20:09;3.20;;;2.00;;
7045;SDS011;3564;53.326;10.356;2022-08-21T07:22:35;4.33;;;2.10;;
7045;SDS011;3564;53.326;10.356;2022-08-21T07:25:02;4.47;;;2.20;;
7045;SDS011;3564;53.326;10.356;2022-08-21T07:27:30;3.70;;;2.10;;
7045;SDS011;3564;53.326;10.356;2022-08-21T07:29:56;3.73;;;1.83;;
7045;SDS011;3564;53.326;10.356;2022-08-21T07:32:23;2.50;;;1.70;;
7045;SDS011;3564;53.326;10.356;2022-08-21T07:34:49;4.17;;;2.20;;
7045;SDS011;3564;53.326;10.356;2022-08-21T07:37:17;3.77;;;2.10;;
7045;SDS011;3564;53.326;10.356;2022-08-21T07:39:43;4.80;;;1.73;;
7045;SDS011;3564;53.326;10.356;2022-08-21T07:42:09;3.50;;;2.27;;
7045;SDS011;3564;53.326;10.356;2022-08-21T07:44:35;5.23;;;2.10;;
7045;SDS011;3564;53.326;10.356;2022-08-21T07:47:01;2.33;;;1.77;;
7045;SDS011;3564;53.326;10.356;2022-08-21T07:49:27;3.90;;;1.83;;
7045;SDS011;3564;53.326;10.356;2022-08-21T07:51:53;2.47;;;1.93;;
7045;SDS011;3564;53.326;10.356;2022-08-21T07:54:19;3.47;;;1.70;;
7045;SDS011;3564;53.326;10.356;2022-08-21T07:56:45;3.73;;;1.87;;
7045;SDS011;3564;53.326;10.356;2022-08-21T07:59:11;3.93;;;1.87;;
7045;SDS011;3564;53.326;10.356;2022-08-21T08:01:37;3.23;;;1.83;;
7045;SDS011;3564;53.326;10.356;2022-08-21T08:04:02;3.03;;;2.40;;
7045;SDS011;3564;53.326;10.356;2022-08-21T08:06:29;3.77;;;2.13;;
7045;SDS011;3564;53.326;10.356;2022-08-21T08:08:55;3.77;;;1.93;;
7045;SDS011;3564;53.326;10.356;2022-08-21T08:11:21;3.43;;;2.03;;
7045;SDS011;3564;53.326;10.356;2022-08-21T08:13:48;5.60;;;1.90;;
7045;SDS011;3564;53.326;10.356;2022-08-21T08:16:16;5.10;;;2.10;;
7045;SDS011;3564;53.326;10.356;2022-08-21T08:18:43;3.83;;;1.90;;
7045;SDS011;3564;53.326;10.356;2022-08-21T08:21:09;4.73;;;2.30;;
7045;SDS011;3564;53.326;10.356;2022-08-21T08:23:39;3.77;;;1.90;;
7045;SDS011;3564;53.326;10.356;2022-08-21T08:26:04;4.80;;;1.90;;
7045;SDS011;3564;53.326;10.356;2022-08-21T08:28:31;3.70;;;1.83;;
7045;SDS011;3564;53.326;10.356;2022-08-21T08:30:58;5.03;;;2.33;;
7045;SDS011;3564;53.326;10.356;2022-08-21T08:33:24;5.27;;;2.70;;
7045;SDS011;3564;53.326;10.356;2022-08-21T08:35:50;5.27;;;2.63;;
7045;SDS011;3564;53.326;10.356;2022-08-21T08:38:17;4.93;;;2.87;;
7045;SDS011;3564;53.326;10.356;2022-08-21T08:43:25;6.87;;;3.60;;
7045;SDS011;3564;53.326;10.356;2022-08-21T08:45:55;5.20;;;3.13;;
7045;SDS011;3564;53.326;10.356;2022-08-21T08:51:18;7.07;;;3.00;;
7045;SDS011;3564;53.326;10.356;2022-08-21T08:54:03;5.57;;;2.30;;
7045;SDS011;3564;53.326;10.356;2022-08-21T08:56:33;3.17;;;2.47;;
7045;SDS011;3564;53.326;10.356;2022-08-21T08:59:02;3.93;;;2.20;;
7045;SDS011;3564;53.326;10.356;2022-08-21T09:01:33;4.70;;;2.20;;
7045;SDS011;3564;53.326;10.356;2022-08-21T09:03:59;5.37;;;2.00;;
7045;SDS011;3564;53.326;10.356;2022-08-21T09:06:48;3.60;;;1.83;;
7045;SDS011;3564;53.326;10.356;2022-08-21T09:12:25;4.07;;;2.20;;
7045;SDS011;3564;53.326;10.356;2022-08-21T09:27:35;3.90;;;1.87;;
7045;SDS011;3564;53.326;10.356;2022-08-21T09:30:03;3.93;;;2.20;;
7045;SDS011;3564;53.326;10.356;2022-08-21T09:32:33;5.57;;;2.23;;
7045;SDS011;3564;53.326;10.356;2022-08-21T09:37:30;3.87;;;1.60;;
7045;SDS011;3564;53.326;10.356;2022-08-21T09:39:59;6.67;;;2.27;;
7045;SDS011;3564;53.326;10.356;2022-08-21T09:42:29;3.40;;;2.10;;
7045;SDS011;3564;53.326;10.356;2022-08-21T09:45:06;3.47;;;1.90;;
7045;SDS011;3564;53.326;10.356;2022-08-21T09:47:36;5.17;;;2.03;;
7045;SDS011;3564;53.326;10.356;2022-08-21T09:50:10;5.23;;;2.20;;
7045;SDS011;3564;53.326;10.356;2022-08-21T09:52:42;4.33;;;2.03;;
7045;SDS011;3564;53.326;10.356;2022-08-21T09:55:14;4.03;;;1.90;;
7045;SDS011;3564;53.326;10.356;2022-08-21T09:58:03;5.37;;;2.33;;
7045;SDS011;3564;53.326;10.356;2022-08-21T10:00:30;3.93;;;2.33;;
7045;SDS011;3564;53.326;10.356;2022-08-21T10:03:07;7.07;;;2.20;;
7045;SDS011;3564;53.326;10.356;2022-08-21T10:05:34;4.63;;;2.40;;
7045;SDS011;3564;53.326;10.356;2022-08-21T10:08:02;5.47;;;2.13;;
7045;SDS011;3564;53.326;10.356;2022-08-21T10:10:30;5.57;;;2.30;;
7045;SDS011;3564;53.326;10.356;2022-08-21T10:21:23;4.93;;;2.17;;
7045;SDS011;3564;53.326;10.356;2022-08-21T10:37:55;7.50;;;2.00;;
7045;SDS011;3564;53.326;10.356;2022-08-21T10:40:42;6.70;;;2.60;;
7045;SDS011;3564;53.326;10.356;2022-08-21T10:43:34;4.77;;;2.63;;
7045;SDS011;3564;53.326;10.356;2022-08-21T10:46:19;2.63;;;1.87;;
7045;SDS011;3564;53.326;10.356;2022-08-21T10:52:02;5.37;;;2.27;;
7045;SDS011;3564;53.326;10.356;2022-08-21T10:55:04;5.37;;;2.33;;
7045;SDS011;3564;53.326;10.356;2022-08-21T10:57:40;3.93;;;2.40;;
7045;SDS011;3564;53.326;10.356;2022-08-21T11:00:34;4.80;;;2.50;;
7045;SDS011;3564;53.326;10.356;2022-08-21T11:06:00;3.87;;;2.30;;
7045;SDS011;3564;53.326;10.356;2022-08-21T11:08:41;4.77;;;2.20;;
7045;SDS011;3564;53.326;10.356;2022-08-21T11:11:24;5.67;;;2.43;;
7045;SDS011;3564;53.326;10.356;2022-08-21T11:13:57;5.30;;;2.40;;
7045;SDS011;3564;53.326;10.356;2022-08-21T11:19:08;4.27;;;1.97;;
7045;SDS011;3564;53.326;10.356;2022-08-21T11:22:13;5.03;;;2.23;;
7045;SDS011;3564;53.326;10.356;2022-08-21T11:24:50;4.40;;;2.00;;
7045;SDS011;3564;53.326;10.356;2022-08-21T11:30:14;4.73;;;2.07;;
7045;SDS011;3564;53.326;10.356;2022-08-21T11:32:53;5.23;;;1.83;;
7045;SDS011;3564;53.326;10.356;2022-08-21T11:38:15;6.23;;;2.20;;
7045;SDS011;3564;53.326;10.356;2022-08-21T11:43:37;5.53;;;1.90;;
7045;SDS011;3564;53.326;10.356;2022-08-21T11:51:53;5.17;;;1.77;;
7045;SDS011;3564;53.326;10.356;2022-08-21T12:00:00;4.30;;;1.70;;
7045;SDS011;3564;53.326;10.356;2022-08-21T12:02:40;4.63;;;1.80;;
7045;SDS011;3564;53.326;10.356;2022-08-21T12:05:25;4.17;;;2.10;;
7045;SDS011;3564;53.326;10.356;2022-08-21T12:14:34;8.00;;;2.30;;
7045;SDS011;3564;53.326;10.356;2022-08-21T12:16:40;3.03;;;1.83;;
7045;SDS011;3564;53.326;10.356;2022-08-21T12:21:54;5.33;;;2.00;;
7045;SDS011;3564;53.326;10.356;2022-08-21T12:24:48;3.47;;;1.77;;
7045;SDS011;3564;53.326;10.356;2022-08-21T12:27:28;4.20;;;1.80;;
7045;SDS011;3564;53.326;10.356;2022-08-21T12:29:56;2.40;;;1.80;;
7045;SDS011;3564;53.326;10.356;2022-08-21T12:32:27;3.97;;;2.00;;
7045;SDS011;3564;53.326;10.356;2022-08-21T12:35:21;4.80;;;2.03;;
7045;SDS011;3564;53.326;10.356;2022-08-21T12:37:58;1.87;;;1.50;;
7045;SDS011;3564;53.326;10.356;2022-08-21T12:43:21;3.67;;;1.80;;
7045;SDS011;3564;53.326;10.356;2022-08-21T12:45:58;4.33;;;1.70;;
7045;SDS011;3564;53.326;10.356;2022-08-21T12:48:35;2.93;;;1.77;;
7045;SDS011;3564;53.326;10.356;2022-08-21T12:51:29;2.73;;;1.80;;
7045;SDS011;3564;53.326;10.356;2022-08-21T12:53:59;4.03;;;2.10;;
7045;SDS011;3564;53.326;10.356;2022-08-21T12:56:26;3.10;;;1.80;;
7045;SDS011;3564;53.326;10.356;2022-08-21T12:59:02;2.17;;;1.37;;
7045;SDS011;3564;53.326;10.356;2022-08-21T13:01:37;4.70;;;1.90;;
7045;SDS011;3564;53.326;10.356;2022-08-21T13:04:07;4.20;;;1.60;;
7045;SDS011;3564;53.326;10.356;2022-08-21T13:06:46;2.67;;;1.67;;
7045;SDS011;3564;53.326;10.356;2022-08-21T13:09:14;3.83;;;1.73;;
7045;SDS011;3564;53.326;10.356;2022-08-21T13:12:01;2.50;;;1.63;;
7045;SDS011;3564;53.326;10.356;2022-08-21T13:14:28;2.97;;;1.67;;
7045;SDS011;3564;53.326;10.356;2022-08-21T13:17:14;4.20;;;1.40;;
7045;SDS011;3564;53.326;10.356;2022-08-21T13:19:42;3.13;;;1.60;;
7045;SDS011;3564;53.326;10.356;2022-08-21T13:22:17;4.00;;;1.50;;
7045;SDS011;3564;53.326;10.356;2022-08-21T13:24:46;1.77;;;1.50;;
7045;SDS011;3564;53.326;10.356;2022-08-21T13:27:32;2.23;;;1.50;;
7045;SDS011;3564;53.326;10.356;2022-08-21T13:32:51;2.20;;;1.40;;
7045;SDS011;3564;53.326;10.356;2022-08-21T13:38:13;2.03;;;1.40;;
7045;SDS011;3564;53.326;10.356;2022-08-21T13:40:48;2.70;;;1.40;;
7045;SDS011;3564;53.326;10.356;2022-08-21T13:43:17;4.40;;;1.77;;
7045;SDS011;3564;53.326;10.356;2022-08-21T13:45:49;1.47;;;1.23;;
7045;SDS011;3564;53.326;10.356;2022-08-21T13:48:16;2.27;;;1.60;;
7045;SDS011;3564;53.326;10.356;2022-08-21T13:51:02;2.63;;;1.30;;
7045;SDS011;3564;53.326;10.356;2022-08-21T13:53:34;3.47;;;1.70;;
7045;SDS011;3564;53.326;10.356;2022-08-21T13:56:25;4.33;;;1.60;;
7045;SDS011;3564;53.326;10.356;2022-08-21T13:58:52;2.93;;;1.53;;
7045;SDS011;3564;53.326;10.356;2022-08-21T14:01:49;3.80;;;1.73;;
7045;SDS011;3564;53.326;10.356;2022-08-21T14:04:29;2.80;;;1.70;;
7045;SDS011;3564;53.326;10.356;2022-08-21T14:06:58;3.53;;;1.60;;
7045;SDS011;3564;53.326;10.356;2022-08-21T14:09:53;2.10;;;1.40;;
7045;SDS011;3564;53.326;10.356;2022-08-21T14:12:28;3.80;;;1.52;;
7045;SDS011;3564;53.326;10.356;2022-08-21T14:14:58;1.98;;;1.40;;
7045;SDS011;3564;53.326;10.356;2022-08-21T14:17:34;4.38;;;1.80;;
7045;SDS011;3564;53.326;10.356;2022-08-21T14:20:26;2.47;;;1.73;;
7045;SDS011;3564;53.326;10.356;2022-08-21T14:22:57;3.28;;;1.67;;
7045;SDS011;3564;53.326;10.356;2022-08-21T14:30:20;3.05;;;1.50;;
7045;SDS011;3564;53.326;10.356;2022-08-21T14:32:51;2.78;;;1.42;;
7045;SDS011;3564;53.326;10.356;2022-08-21T14:35:18;4.10;;;1.77;;
7045;SDS011;3564;53.326;10.356;2022-08-21T14:37:45;3.03;;;1.85;;
7045;SDS011;3564;53.326;10.356;2022-08-21T14:40:32;3.38;;;1.77;;
7045;SDS011;3564;53.326;10.356;2022-08-21T14:43:18;6.10;;;1.95;;
7045;SDS011;3564;53.326;10.356;2022-08-21T14:45:45;4.50;;;1.55;;
7045;SDS011;3564;53.326;10.356;2022-08-21T14:48:11;2.55;;;1.80;;
7045;SDS011;3564;53.326;10.356;2022-08-21T14:50:37;2.70;;;1.65;;
7045;SDS011;3564;53.326;10.356;2022-08-21T14:53:03;3.85;;;1.80;;
7045;SDS011;3564;53.326;10.356;2022-08-21T14:55:29;3.47;;;1.67;;
7045;SDS011;3564;53.326;10.356;2022-08-21T14:58:29;3.55;;;1.70;;
7045;SDS011;3564;53.326;10.356;2022-08-21T15:01:16;4.63;;;1.77;;
7045;SDS011;3564;53.326;10.356;2022-08-21T15:04:22;2.13;;;1.45;;
7045;SDS011;3564;53.326;10.356;2022-08-21T15:06:47;4.30;;;1.48;;
7045;SDS011;3564;53.326;10.356;2022-08-21T15:09:13;3.70;;;1.60;;
7045;SDS011;3564;53.326;10.356;2022-08-21T15:11:39;2.47;;;1.42;;
7045;SDS011;3564;53.326;10.356;2022-08-21T15:14:05;4.45;;;1.88;;
7045;SDS011;3564;53.326;10.356;2022-08-21T15:16:34;2.55;;;1.63;;
7045;SDS011;3564;53.326;10.356;2022-08-21T15:19:00;2.33;;;1.42;;
7045;SDS011;3564;53.326;10.356;2022-08-21T15:21:25;3.03;;;1.63;;
7045;SDS011;3564;53.326;10.356;2022-08-21T15:23:51;5.32;;;1.80;;
7045;SDS011;3564;53.326;10.356;2022-08-21T15:26:18;2.50;;;1.60;;
7045;SDS011;3564;53.326;10.356;2022-08-21T15:28:44;3.50;;;1.90;;
7045;SDS011;3564;53.326;10.356;2022-08-21T15:31:10;3.15;;;1.40;;
7045;SDS011;3564;53.326;10.356;2022-08-21T15:33:35;3.70;;;1.60;;
7045;SDS011;3564;53.326;10.356;2022-08-21T15:36:01;5.03;;;1.70;;
7045;SDS011;3564;53.326;10.356;2022-08-21T15:38:27;2.45;;;1.38;;
7045;SDS011;3564;53.326;10.356;2022-08-21T15:40:53;2.47;;;1.60;;
7045;SDS011;3564;53.326;10.356;2022-08-21T15:43:26;2.45;;;1.42;;
7045;SDS011;3564;53.326;10.356;2022-08-21T15:45:54;2.20;;;1.38;;
7045;SDS011;3564;53.326;10.356;2022-08-21T15:48:19;4.18;;;1.63;;
7045;SDS011;3564;53.326;10.356;2022-08-21T15:50:45;4.00;;;1.70;;
7045;SDS011;3564;53.326;10.356;2022-08-21T15:53:11;2.97;;;1.65;;
7045;SDS011;3564;53.326;10.356;2022-08-21T15:55:37;3.13;;;1.60;;
7045;SDS011;3564;53.326;10.356;2022-08-21T15:58:04;3.28;;;1.70;;
7045;SDS011;3564;53.326;10.356;2022-08-21T16:00:31;3.65;;;1.60;;
7045;SDS011;3564;53.326;10.356;2022-08-21T16:03:00;3.60;;;1.45;;
7045;SDS011;3564;53.326;10.356;2022-08-21T16:05:29;4.32;;;1.83;;
7045;SDS011;3564;53.326;10.356;2022-08-21T16:07:56;2.88;;;1.50;;
7045;SDS011;3564;53.326;10.356;2022-08-21T16:10:22;3.42;;;1.80;;
7045;SDS011;3564;53.326;10.356;2022-08-21T16:12:51;2.33;;;1.80;;
7045;SDS011;3564;53.326;10.356;2022-08-21T16:15:23;5.05;;;1.83;;
7045;SDS011;3564;53.326;10.356;2022-08-21T16:17:50;7.72;;;1.83;;
7045;SDS011;3564;53.326;10.356;2022-08-21T16:20:27;1.52;;;1.30;;
7045;SDS011;3564;53.326;10.356;2022-08-21T16:22:54;3.92;;;1.80;;
7045;SDS011;3564;53.326;10.356;2022-08-21T16:25:21;4.45;;;1.70;;
7045;SDS011;3564;53.326;10.356;2022-08-21T16:27:50;2.42;;;1.48;;
7045;SDS011;3564;53.326;10.356;2022-08-21T16:30:18;3.72;;;1.58;;
7045;SDS011;3564;53.326;10.356;2022-08-21T16:32:46;1.55;;;1.45;;
7045;SDS011;3564;53.326;10.356;2022-08-21T16:35:13;2.80;;;1.73;;
7045;SDS011;3564;53.326;10.356;2022-08-21T16:37:42;3.00;;;1.70;;
7045;SDS011;3564;53.326;10.356;2022-08-21T16:40:08;3.20;;;1.60;;
7045;SDS011;3564;53.326;10.356;2022-08-21T16:42:36;5.32;;;2.08;;
7045;SDS011;3564;53.326;10.356;2022-08-21T16:45:05;3.40;;;1.67;;
7045;SDS011;3564;53.326;10.356;2022-08-21T16:47:34;3.33;;;1.70;;
7045;SDS011;3564;53.326;10.356;2022-08-21T16:49:59;4.47;;;1.88;;
7045;SDS011;3564;53.326;10.356;2022-08-21T16:52:25;3.13;;;1.60;;
7045;SDS011;3564;53.326;10.356;2022-08-21T16:54:50;1.85;;;1.30;;
7045;SDS011;3564;53.326;10.356;2022-08-21T16:57:16;4.35;;;1.75;;